sensor_id;sensor_type;location;lat;lon;timestamp;P1;durP1;ratioP1;P2;durP2;ratioP2
79088;SDS011;68489;50.286;9.452;2023-12-22T00:02:03;5.72;;;0.10;;
79088;SDS011;68489;50.286;9.452;2023-12-22T00:04:29;3.75;;;0.13;;
79088;SDS011;68489;50.286;9.452;2023-12-22T00:06:54;5.00;;;0.20;;
79088;SDS011;68489;50.286;9.452;2023-12-22T00:09:19;7.05;;;0.63;;
79088;SDS011;68489;50.286;9.452;2023-12-22T00:11:45;5.38;;;0.10;;
79088;SDS011;68489;50.286;9.452;2023-12-22T00:14:11;4.40;;;0.10;;
79088;SDS011;68489;50.286;9.452;2023-12-22T00:16:37;6.22;;;0.20;;
79088;SDS011;68489;50.286;9.452;2023-12-22T00:19:03;5.85;;;0.25;;
79088;SDS011;68489;50.286;9.452;2023-12-22T00:21:28;1.25;;;0.00;;
79088;SDS011;68489;50.286;9.452;2023-12-22T00:23:54;4.50;;;0.17;;
79088;SDS011;68489;50.286;9.452;2023-12-22T00:26:19;3.45;;;0.25;;
79088;SDS011;68489;50.286;9.452;2023-12-22T00:28:44;4.82;;;0.10;;
79088;SDS011;68489;50.286;9.452;2023-12-22T00:31:10;5.55;;;0.22;;
79088;SDS011;68489;50.286;9.452;2023-12-22T00:33:37;4.85;;;0.22;;
79088;SDS011;68489;50.286;9.452;2023-12-22T00:36:03;1.75;;;0.30;;
79088;SDS011;68489;50.286;9.452;2023-12-22T00:38:28;2.42;;;0.30;;
79088;SDS011;68489;50.286;9.452;2023-12-22T00:40:54;4.78;;;0.30;;
79088;SDS011;68489;50.286;9.452;2023-12-22T00:43:19;2.00;;;0.20;;
79088;SDS011;68489;50.286;9.452;2023-12-22T00:45:44;1.90;;;0.10;;
79088;SDS011;68489;50.286;9.452;2023-12-22T00:48:10;5.95;;;0.40;;
79088;SDS011;68489;50.286;9.452;2023-12-22T00:50:35;1.98;;;0.32;;
79088;SDS011;68489;50.286;9.452;2023-12-22T00:53:01;2.17;;;0.10;;
79088;SDS011;68489;50.286;9.452;2023-12-22T00:55:26;1.33;;;0.05;;
79088;SDS011;68489;50.286;9.452;2023-12-22T00:57:51;2.33;;;0.10;;
79088;SDS011;68489;50.286;9.452;2023-12-22T01:00:17;0.82;;;0.00;;
79088;SDS011;68489;50.286;9.452;2023-12-22T01:02:42;3.20;;;0.13;;
79088;SDS011;68489;50.286;9.452;2023-12-22T01:05:08;2.30;;;0.10;;
79088;SDS011;68489;50.286;9.452;2023-12-22T01:07:34;1.63;;;0.15;;
79088;SDS011;68489;50.286;9.452;2023-12-22T01:09:59;2.80;;;0.10;;
79088;SDS011;68489;50.286;9.452;2023-12-22T01:12:29;2.42;;;0.00;;
79088;SDS011;68489;50.286;9.452;2023-12-22T01:14:55;2.38;;;0.22;;
79088;SDS011;68489;50.286;9.452;2023-12-22T01:17:23;1.98;;;0.10;;
79088;SDS011;68489;50.286;9.452;2023-12-22T01:19:49;1.05;;;0.08;;
79088;SDS011;68489;50.286;9.452;2023-12-22T01:22:14;0.57;;;0.10;;
79088;SDS011;68489;50.286;9.452;2023-12-22T01:24:39;5.30;;;0.10;;
79088;SDS011;68489;50.286;9.452;2023-12-22T01:27:08;1.77;;;0.10;;
79088;SDS011;68489;50.286;9.452;2023-12-22T01:29:34;0.63;;;0.00;;
79088;SDS011;68489;50.286;9.452;2023-12-22T01:31:59;1.58;;;0.03;;
79088;SDS011;68489;50.286;9.452;2023-12-22T01:34:24;2.80;;;0.10;;
79088;SDS011;68489;50.286;9.452;2023-12-22T01:36:50;3.03;;;0.10;;
79088;SDS011;68489;50.286;9.452;2023-12-22T01:39:15;1.55;;;0.75;;
79088;SDS011;68489;50.286;9.452;2023-12-22T01:41:41;3.03;;;0.00;;
79088;SDS011;68489;50.286;9.452;2023-12-22T01:44:06;3.60;;;0.10;;
79088;SDS011;68489;50.286;9.452;2023-12-22T01:46:32;2.73;;;0.00;;
79088;SDS011;68489;50.286;9.452;2023-12-22T01:48:58;0.95;;;0.00;;
79088;SDS011;68489;50.286;9.452;2023-12-22T01:51:26;3.08;;;0.10;;
79088;SDS011;68489;50.286;9.452;2023-12-22T01:53:53;2.03;;;0.10;;
79088;SDS011;68489;50.286;9.452;2023-12-22T01:56:18;0.90;;;0.00;;
79088;SDS011;68489;50.286;9.452;2023-12-22T01:58:43;0.90;;;0.00;;
79088;SDS011;68489;50.286;9.452;2023-12-22T02:01:09;2.63;;;0.00;;
79088;SDS011;68489;50.286;9.452;2023-12-22T02:03:35;2.40;;;0.05;;
79088;SDS011;68489;50.286;9.452;2023-12-22T02:06:01;0.57;;;0.00;;
79088;SDS011;68489;50.286;9.452;2023-12-22T02:08:27;1.48;;;0.10;;
79088;SDS011;68489;50.286;9.452;2023-12-22T02:10:57;0.38;;;0.00;;
79088;SDS011;68489;50.286;9.452;2023-12-22T02:13:22;0.57;;;0.13;;
79088;SDS011;68489;50.286;9.452;2023-12-22T02:15:48;4.78;;;0.10;;
79088;SDS011;68489;50.286;9.452;2023-12-22T02:18:19;2.67;;;0.10;;
79088;SDS011;68489;50.286;9.452;2023-12-22T02:20:50;0.57;;;0.00;;
79088;SDS011;68489;50.286;9.452;2023-12-22T02:23:15;2.10;;;0.10;;
79088;SDS011;68489;50.286;9.452;2023-12-22T02:25:41;5.30;;;0.05;;
79088;SDS011;68489;50.286;9.452;2023-12-22T02:28:09;3.37;;;0.30;;
79088;SDS011;68489;50.286;9.452;2023-12-22T02:30:43;4.93;;;0.32;;
79088;SDS011;68489;50.286;9.452;2023-12-22T02:33:19;1.45;;;0.00;;
79088;SDS011;68489;50.286;9.452;2023-12-22T02:35:48;1.38;;;0.00;;
79088;SDS011;68489;50.286;9.452;2023-12-22T02:38:14;3.85;;;0.20;;
79088;SDS011;68489;50.286;9.452;2023-12-22T02:40:41;2.72;;;0.00;;
79088;SDS011;68489;50.286;9.452;2023-12-22T02:43:07;3.20;;;0.08;;
79088;SDS011;68489;50.286;9.452;2023-12-22T02:45:33;1.23;;;0.10;;
79088;SDS011;68489;50.286;9.452;2023-12-22T02:47:59;5.53;;;0.15;;
79088;SDS011;68489;50.286;9.452;2023-12-22T02:50:25;1.98;;;0.28;;
79088;SDS011;68489;50.286;9.452;2023-12-22T02:52:50;0.63;;;0.00;;
79088;SDS011;68489;50.286;9.452;2023-12-22T02:55:16;4.77;;;0.00;;
79088;SDS011;68489;50.286;9.452;2023-12-22T02:57:41;0.43;;;0.00;;
79088;SDS011;68489;50.286;9.452;2023-12-22T03:00:07;2.27;;;0.10;;
79088;SDS011;68489;50.286;9.452;2023-12-22T03:02:32;2.25;;;0.10;;
79088;SDS011;68489;50.286;9.452;2023-12-22T03:04:58;1.27;;;0.00;;
79088;SDS011;68489;50.286;9.452;2023-12-22T03:07:23;0.40;;;0.00;;
79088;SDS011;68489;50.286;9.452;2023-12-22T03:09:48;1.85;;;0.13;;
79088;SDS011;68489;50.286;9.452;2023-12-22T03:12:14;1.13;;;0.00;;
79088;SDS011;68489;50.286;9.452;2023-12-22T03:14:39;2.73;;;0.00;;
79088;SDS011;68489;50.286;9.452;2023-12-22T03:17:05;0.17;;;0.00;;
79088;SDS011;68489;50.286;9.452;2023-12-22T03:19:31;1.23;;;0.00;;
79088;SDS011;68489;50.286;9.452;2023-12-22T03:21:57;1.27;;;0.00;;
79088;SDS011;68489;50.286;9.452;2023-12-22T03:24:23;1.77;;;0.10;;
79088;SDS011;68489;50.286;9.452;2023-12-22T03:26:49;2.10;;;0.13;;
79088;SDS011;68489;50.286;9.452;2023-12-22T03:29:14;1.73;;;0.00;;
79088;SDS011;68489;50.286;9.452;2023-12-22T03:31:40;2.08;;;0.20;;
79088;SDS011;68489;50.286;9.452;2023-12-22T03:34:06;1.00;;;0.00;;
79088;SDS011;68489;50.286;9.452;2023-12-22T03:36:31;0.70;;;0.00;;
79088;SDS011;68489;50.286;9.452;2023-12-22T03:38:56;0.30;;;0.00;;
79088;SDS011;68489;50.286;9.452;2023-12-22T03:41:22;1.67;;;0.08;;
79088;SDS011;68489;50.286;9.452;2023-12-22T03:43:47;0.73;;;0.00;;
79088;SDS011;68489;50.286;9.452;2023-12-22T03:46:13;1.23;;;0.00;;
79088;SDS011;68489;50.286;9.452;2023-12-22T03:48:38;0.45;;;0.00;;
79088;SDS011;68489;50.286;9.452;2023-12-22T03:51:03;0.57;;;0.00;;
79088;SDS011;68489;50.286;9.452;2023-12-22T03:53:29;0.43;;;0.00;;
79088;SDS011;68489;50.286;9.452;2023-12-22T03:55:54;0.47;;;0.00;;
79088;SDS011;68489;50.286;9.452;2023-12-22T03:58:20;0.70;;;0.00;;
79088;SDS011;68489;50.286;9.452;2023-12-22T04:00:45;0.27;;;0.00;;
79088;SDS011;68489;50.286;9.452;2023-12-22T04:03:10;0.00;;;0.00;;
79088;SDS011;68489;50.286;9.452;2023-12-22T04:05:35;0.20;;;0.00;;
79088;SDS011;68489;50.286;9.452;2023-12-22T04:08:01;0.77;;;0.10;;
79088;SDS011;68489;50.286;9.452;2023-12-22T04:10:26;0.60;;;0.20;;
79088;SDS011;68489;50.286;9.452;2023-12-22T04:12:52;0.17;;;0.00;;
79088;SDS011;68489;50.286;9.452;2023-12-22T04:15:17;0.00;;;0.00;;
79088;SDS011;68489;50.286;9.452;2023-12-22T04:17:42;0.20;;;0.00;;
79088;SDS011;68489;50.286;9.452;2023-12-22T04:20:08;0.68;;;0.00;;
79088;SDS011;68489;50.286;9.452;2023-12-22T04:22:33;1.55;;;0.03;;
79088;SDS011;68489;50.286;9.452;2023-12-22T04:24:59;0.30;;;0.00;;
79088;SDS011;68489;50.286;9.452;2023-12-22T04:27:24;0.20;;;0.00;;
79088;SDS011;68489;50.286;9.452;2023-12-22T04:29:50;1.60;;;0.00;;
79088;SDS011;68489;50.286;9.452;2023-12-22T04:32:15;0.60;;;0.10;;
79088;SDS011;68489;50.286;9.452;2023-12-22T04:34:40;1.58;;;0.00;;
79088;SDS011;68489;50.286;9.452;2023-12-22T04:37:06;0.25;;;0.00;;
79088;SDS011;68489;50.286;9.452;2023-12-22T04:39:31;3.53;;;0.13;;
79088;SDS011;68489;50.286;9.452;2023-12-22T04:41:57;0.05;;;0.00;;
79088;SDS011;68489;50.286;9.452;2023-12-22T04:44:22;0.77;;;0.00;;
79088;SDS011;68489;50.286;9.452;2023-12-22T04:46:47;0.27;;;0.00;;
79088;SDS011;68489;50.286;9.452;2023-12-22T04:49:14;1.48;;;0.00;;
79088;SDS011;68489;50.286;9.452;2023-12-22T04:51:39;4.27;;;0.00;;
79088;SDS011;68489;50.286;9.452;2023-12-22T04:54:04;0.20;;;0.00;;
79088;SDS011;68489;50.286;9.452;2023-12-22T04:56:30;0.47;;;0.00;;
79088;SDS011;68489;50.286;9.452;2023-12-22T04:58:55;0.15;;;0.00;;
79088;SDS011;68489;50.286;9.452;2023-12-22T05:01:20;0.73;;;0.00;;
79088;SDS011;68489;50.286;9.452;2023-12-22T05:03:46;0.10;;;0.00;;
79088;SDS011;68489;50.286;9.452;2023-12-22T05:06:11;0.83;;;0.00;;
79088;SDS011;68489;50.286;9.452;2023-12-22T05:08:36;0.50;;;0.10;;
79088;SDS011;68489;50.286;9.452;2023-12-22T05:11:02;0.30;;;0.00;;
79088;SDS011;68489;50.286;9.452;2023-12-22T05:13:28;0.30;;;0.00;;
79088;SDS011;68489;50.286;9.452;2023-12-22T05:15:53;0.88;;;0.00;;
79088;SDS011;68489;50.286;9.452;2023-12-22T05:18:19;0.65;;;0.00;;
79088;SDS011;68489;50.286;9.452;2023-12-22T05:20:45;0.75;;;0.00;;
79088;SDS011;68489;50.286;9.452;2023-12-22T05:23:10;6.53;;;0.05;;
79088;SDS011;68489;50.286;9.452;2023-12-22T05:25:36;0.13;;;0.00;;
79088;SDS011;68489;50.286;9.452;2023-12-22T05:28:01;0.00;;;0.00;;
79088;SDS011;68489;50.286;9.452;2023-12-22T05:30:26;0.00;;;0.00;;
79088;SDS011;68489;50.286;9.452;2023-12-22T05:32:52;0.40;;;0.00;;
79088;SDS011;68489;50.286;9.452;2023-12-22T05:35:17;1.05;;;0.00;;
79088;SDS011;68489;50.286;9.452;2023-12-22T05:37:42;0.73;;;0.00;;
79088;SDS011;68489;50.286;9.452;2023-12-22T05:40:08;0.55;;;0.00;;
79088;SDS011;68489;50.286;9.452;2023-12-22T05:42:34;0.55;;;0.00;;
79088;SDS011;68489;50.286;9.452;2023-12-22T05:45:00;1.42;;;0.10;;
79088;SDS011;68489;50.286;9.452;2023-12-22T05:47:25;1.17;;;0.00;;
79088;SDS011;68489;50.286;9.452;2023-12-22T05:49:50;2.57;;;0.20;;
79088;SDS011;68489;50.286;9.452;2023-12-22T05:52:16;0.40;;;0.00;;
79088;SDS011;68489;50.286;9.452;2023-12-22T05:54:41;0.20;;;0.00;;
79088;SDS011;68489;50.286;9.452;2023-12-22T05:57:06;0.22;;;0.00;;
79088;SDS011;68489;50.286;9.452;2023-12-22T05:59:32;0.38;;;0.00;;
79088;SDS011;68489;50.286;9.452;2023-12-22T06:01:58;5.63;;;0.10;;
79088;SDS011;68489;50.286;9.452;2023-12-22T06:04:24;1.25;;;0.10;;
79088;SDS011;68489;50.286;9.452;2023-12-22T06:06:50;0.98;;;0.00;;
79088;SDS011;68489;50.286;9.452;2023-12-22T06:09:15;3.55;;;0.10;;
79088;SDS011;68489;50.286;9.452;2023-12-22T06:11:43;1.02;;;0.30;;
79088;SDS011;68489;50.286;9.452;2023-12-22T06:14:08;0.70;;;0.00;;
79088;SDS011;68489;50.286;9.452;2023-12-22T06:16:33;1.80;;;0.00;;
79088;SDS011;68489;50.286;9.452;2023-12-22T06:18:59;1.50;;;0.00;;
79088;SDS011;68489;50.286;9.452;2023-12-22T06:21:24;0.43;;;0.00;;
79088;SDS011;68489;50.286;9.452;2023-12-22T06:23:50;3.05;;;0.00;;
79088;SDS011;68489;50.286;9.452;2023-12-22T06:26:15;4.90;;;0.10;;
79088;SDS011;68489;50.286;9.452;2023-12-22T06:28:40;3.83;;;0.30;;
79088;SDS011;68489;50.286;9.452;2023-12-22T06:31:06;2.85;;;0.10;;
79088;SDS011;68489;50.286;9.452;2023-12-22T06:33:32;0.68;;;0.00;;
79088;SDS011;68489;50.286;9.452;2023-12-22T06:35:57;3.95;;;0.10;;
79088;SDS011;68489;50.286;9.452;2023-12-22T06:38:22;2.13;;;0.08;;
79088;SDS011;68489;50.286;9.452;2023-12-22T06:40:48;2.40;;;0.10;;
79088;SDS011;68489;50.286;9.452;2023-12-22T06:43:13;1.27;;;0.10;;
79088;SDS011;68489;50.286;9.452;2023-12-22T06:45:39;4.90;;;0.20;;
79088;SDS011;68489;50.286;9.452;2023-12-22T06:48:05;4.78;;;0.22;;
79088;SDS011;68489;50.286;9.452;2023-12-22T06:50:31;2.10;;;0.20;;
79088;SDS011;68489;50.286;9.452;2023-12-22T06:52:56;2.63;;;0.13;;
79088;SDS011;68489;50.286;9.452;2023-12-22T06:55:21;1.97;;;0.00;;
79088;SDS011;68489;50.286;9.452;2023-12-22T06:57:47;2.27;;;0.10;;
79088;SDS011;68489;50.286;9.452;2023-12-22T07:00:12;1.80;;;0.30;;
79088;SDS011;68489;50.286;9.452;2023-12-22T07:02:38;3.42;;;0.30;;
79088;SDS011;68489;50.286;9.452;2023-12-22T07:07:34;2.95;;;0.13;;
79088;SDS011;68489;50.286;9.452;2023-12-22T07:10:00;2.67;;;0.10;;
79088;SDS011;68489;50.286;9.452;2023-12-22T07:12:25;6.65;;;1.35;;
79088;SDS011;68489;50.286;9.452;2023-12-22T07:14:51;2.10;;;0.35;;
79088;SDS011;68489;50.286;9.452;2023-12-22T07:17:16;4.87;;;0.10;;
79088;SDS011;68489;50.286;9.452;2023-12-22T07:19:41;3.70;;;0.10;;
79088;SDS011;68489;50.286;9.452;2023-12-22T07:22:07;2.00;;;0.03;;
79088;SDS011;68489;50.286;9.452;2023-12-22T07:24:32;4.75;;;0.20;;
79088;SDS011;68489;50.286;9.452;2023-12-22T07:26:58;6.38;;;0.10;;
79088;SDS011;68489;50.286;9.452;2023-12-22T07:29:23;1.42;;;0.08;;
79088;SDS011;68489;50.286;9.452;2023-12-22T07:31:48;0.73;;;0.10;;
79088;SDS011;68489;50.286;9.452;2023-12-22T07:34:14;3.28;;;0.25;;
79088;SDS011;68489;50.286;9.452;2023-12-22T07:36:40;1.70;;;0.13;;
79088;SDS011;68489;50.286;9.452;2023-12-22T07:39:05;3.55;;;0.10;;
79088;SDS011;68489;50.286;9.452;2023-12-22T07:41:31;4.50;;;0.30;;
79088;SDS011;68489;50.286;9.452;2023-12-22T07:43:57;4.53;;;0.40;;
79088;SDS011;68489;50.286;9.452;2023-12-22T07:46:22;1.43;;;0.00;;
79088;SDS011;68489;50.286;9.452;2023-12-22T07:48:48;2.10;;;0.10;;
79088;SDS011;68489;50.286;9.452;2023-12-22T07:51:13;2.03;;;0.10;;
79088;SDS011;68489;50.286;9.452;2023-12-22T07:53:38;2.13;;;0.20;;
79088;SDS011;68489;50.286;9.452;2023-12-22T07:56:04;1.30;;;0.05;;
79088;SDS011;68489;50.286;9.452;2023-12-22T07:58:30;2.05;;;0.25;;
79088;SDS011;68489;50.286;9.452;2023-12-22T08:00:57;1.25;;;0.10;;
79088;SDS011;68489;50.286;9.452;2023-12-22T08:03:23;1.08;;;0.10;;
79088;SDS011;68489;50.286;9.452;2023-12-22T08:05:49;4.00;;;0.20;;
79088;SDS011;68489;50.286;9.452;2023-12-22T08:08:14;2.13;;;0.10;;
79088;SDS011;68489;50.286;9.452;2023-12-22T08:10:40;1.75;;;0.20;;
79088;SDS011;68489;50.286;9.452;2023-12-22T08:13:06;2.10;;;0.20;;
79088;SDS011;68489;50.286;9.452;2023-12-22T08:15:31;1.50;;;0.03;;
79088;SDS011;68489;50.286;9.452;2023-12-22T08:17:57;1.45;;;0.30;;
79088;SDS011;68489;50.286;9.452;2023-12-22T08:20:22;0.68;;;0.03;;
79088;SDS011;68489;50.286;9.452;2023-12-22T08:22:48;2.47;;;0.17;;
79088;SDS011;68489;50.286;9.452;2023-12-22T08:25:14;2.70;;;0.20;;
79088;SDS011;68489;50.286;9.452;2023-12-22T08:27:41;3.80;;;0.20;;
79088;SDS011;68489;50.286;9.452;2023-12-22T08:30:07;5.15;;;0.10;;
79088;SDS011;68489;50.286;9.452;2023-12-22T08:32:33;2.78;;;0.10;;
79088;SDS011;68489;50.286;9.452;2023-12-22T08:34:59;5.43;;;0.45;;
79088;SDS011;68489;50.286;9.452;2023-12-22T08:37:24;1.60;;;0.23;;
79088;SDS011;68489;50.286;9.452;2023-12-22T08:39:49;2.57;;;0.20;;
79088;SDS011;68489;50.286;9.452;2023-12-22T08:42:16;2.28;;;0.10;;
79088;SDS011;68489;50.286;9.452;2023-12-22T08:44:41;2.72;;;0.10;;
79088;SDS011;68489;50.286;9.452;2023-12-22T08:47:07;3.85;;;0.45;;
79088;SDS011;68489;50.286;9.452;2023-12-22T08:49:32;0.80;;;0.00;;
79088;SDS011;68489;50.286;9.452;2023-12-22T08:51:57;8.57;;;0.53;;
79088;SDS011;68489;50.286;9.452;2023-12-22T08:54:23;1.80;;;0.08;;
79088;SDS011;68489;50.286;9.452;2023-12-22T08:56:48;2.87;;;0.20;;
79088;SDS011;68489;50.286;9.452;2023-12-22T08:59:13;6.03;;;0.10;;
79088;SDS011;68489;50.286;9.452;2023-12-22T09:01:40;0.90;;;0.10;;
79088;SDS011;68489;50.286;9.452;2023-12-22T09:04:09;2.72;;;0.20;;
79088;SDS011;68489;50.286;9.452;2023-12-22T09:06:35;4.95;;;0.55;;
79088;SDS011;68489;50.286;9.452;2023-12-22T09:09:00;5.33;;;0.27;;
79088;SDS011;68489;50.286;9.452;2023-12-22T09:11:25;3.63;;;0.10;;
79088;SDS011;68489;50.286;9.452;2023-12-22T09:13:51;2.58;;;0.20;;
79088;SDS011;68489;50.286;9.452;2023-12-22T09:16:23;1.80;;;0.10;;
79088;SDS011;68489;50.286;9.452;2023-12-22T09:18:50;2.25;;;0.10;;
79088;SDS011;68489;50.286;9.452;2023-12-22T09:21:16;4.03;;;0.10;;
79088;SDS011;68489;50.286;9.452;2023-12-22T09:23:43;2.67;;;0.30;;
79088;SDS011;68489;50.286;9.452;2023-12-22T09:26:11;4.50;;;0.52;;
79088;SDS011;68489;50.286;9.452;2023-12-22T09:28:36;4.38;;;0.43;;
79088;SDS011;68489;50.286;9.452;2023-12-22T09:31:02;7.30;;;0.20;;
79088;SDS011;68489;50.286;9.452;2023-12-22T09:33:30;2.15;;;0.20;;
79088;SDS011;68489;50.286;9.452;2023-12-22T09:35:55;3.85;;;0.30;;
79088;SDS011;68489;50.286;9.452;2023-12-22T09:38:21;0.70;;;0.10;;
79088;SDS011;68489;50.286;9.452;2023-12-22T09:40:48;5.22;;;0.20;;
79088;SDS011;68489;50.286;9.452;2023-12-22T09:43:14;4.82;;;0.40;;
79088;SDS011;68489;50.286;9.452;2023-12-22T09:45:40;2.58;;;0.20;;
79088;SDS011;68489;50.286;9.452;2023-12-22T09:48:06;5.32;;;0.30;;
79088;SDS011;68489;50.286;9.452;2023-12-22T09:50:32;5.20;;;0.30;;
79088;SDS011;68489;50.286;9.452;2023-12-22T09:52:59;7.28;;;0.30;;
79088;SDS011;68489;50.286;9.452;2023-12-22T09:55:25;2.60;;;0.38;;
79088;SDS011;68489;50.286;9.452;2023-12-22T09:57:52;6.93;;;0.30;;
79088;SDS011;68489;50.286;9.452;2023-12-22T10:00:17;5.88;;;0.20;;
79088;SDS011;68489;50.286;9.452;2023-12-22T10:02:43;4.22;;;0.40;;
79088;SDS011;68489;50.286;9.452;2023-12-22T10:05:12;6.03;;;0.95;;
79088;SDS011;68489;50.286;9.452;2023-12-22T10:07:41;3.50;;;0.20;;
79088;SDS011;68489;50.286;9.452;2023-12-22T10:10:09;3.70;;;0.43;;
79088;SDS011;68489;50.286;9.452;2023-12-22T10:12:35;1.83;;;0.10;;
79088;SDS011;68489;50.286;9.452;2023-12-22T10:15:02;3.28;;;0.10;;
79088;SDS011;68489;50.286;9.452;2023-12-22T10:17:30;1.20;;;0.10;;
79088;SDS011;68489;50.286;9.452;2023-12-22T10:19:55;3.85;;;0.28;;
79088;SDS011;68489;50.286;9.452;2023-12-22T10:22:20;1.50;;;0.13;;
79088;SDS011;68489;50.286;9.452;2023-12-22T10:24:48;2.35;;;0.10;;
79088;SDS011;68489;50.286;9.452;2023-12-22T10:27:15;3.08;;;0.20;;
79088;SDS011;68489;50.286;9.452;2023-12-22T10:29:47;2.85;;;0.17;;
79088;SDS011;68489;50.286;9.452;2023-12-22T10:32:19;1.38;;;0.10;;
79088;SDS011;68489;50.286;9.452;2023-12-22T10:34:46;7.60;;;0.77;;
79088;SDS011;68489;50.286;9.452;2023-12-22T10:37:12;2.42;;;0.10;;
79088;SDS011;68489;50.286;9.452;2023-12-22T10:39:38;4.30;;;0.20;;
79088;SDS011;68489;50.286;9.452;2023-12-22T10:42:03;4.15;;;0.10;;
79088;SDS011;68489;50.286;9.452;2023-12-22T10:44:29;2.50;;;0.10;;
79088;SDS011;68489;50.286;9.452;2023-12-22T10:46:55;1.00;;;0.10;;
79088;SDS011;68489;50.286;9.452;2023-12-22T10:49:21;2.00;;;0.22;;
79088;SDS011;68489;50.286;9.452;2023-12-22T10:51:47;4.07;;;0.10;;
79088;SDS011;68489;50.286;9.452;2023-12-22T10:54:14;1.05;;;0.10;;
79088;SDS011;68489;50.286;9.452;2023-12-22T10:56:39;4.43;;;0.30;;
79088;SDS011;68489;50.286;9.452;2023-12-22T10:59:05;5.38;;;0.20;;
79088;SDS011;68489;50.286;9.452;2023-12-22T11:01:31;1.85;;;0.30;;
79088;SDS011;68489;50.286;9.452;2023-12-22T11:04:01;3.05;;;0.20;;
79088;SDS011;68489;50.286;9.452;2023-12-22T11:06:29;2.15;;;0.10;;
79088;SDS011;68489;50.286;9.452;2023-12-22T11:08:59;1.95;;;0.10;;
79088;SDS011;68489;50.286;9.452;2023-12-22T11:11:47;4.90;;;0.22;;
79088;SDS011;68489;50.286;9.452;2023-12-22T11:14:11;3.55;;;0.20;;
79088;SDS011;68489;50.286;9.452;2023-12-22T11:16:38;4.65;;;0.40;;
79088;SDS011;68489;50.286;9.452;2023-12-22T11:19:06;3.20;;;0.10;;
79088;SDS011;68489;50.286;9.452;2023-12-22T11:21:32;3.75;;;0.30;;
79088;SDS011;68489;50.286;9.452;2023-12-22T11:24:00;3.22;;;0.30;;
79088;SDS011;68489;50.286;9.452;2023-12-22T11:26:27;3.40;;;0.30;;
79088;SDS011;68489;50.286;9.452;2023-12-22T11:28:53;2.50;;;0.22;;
79088;SDS011;68489;50.286;9.452;2023-12-22T11:31:18;4.22;;;0.43;;
79088;SDS011;68489;50.286;9.452;2023-12-22T11:33:49;3.33;;;0.43;;
79088;SDS011;68489;50.286;9.452;2023-12-22T11:36:15;6.45;;;0.47;;
79088;SDS011;68489;50.286;9.452;2023-12-22T11:38:42;9.90;;;2.03;;
79088;SDS011;68489;50.286;9.452;2023-12-22T11:41:15;7.65;;;2.58;;
79088;SDS011;68489;50.286;9.452;2023-12-22T11:43:43;12.30;;;3.53;;
79088;SDS011;68489;50.286;9.452;2023-12-22T11:46:09;6.28;;;0.88;;
79088;SDS011;68489;50.286;9.452;2023-12-22T11:48:35;6.40;;;0.50;;
79088;SDS011;68489;50.286;9.452;2023-12-22T11:51:02;8.48;;;0.70;;
79088;SDS011;68489;50.286;9.452;2023-12-22T11:53:37;5.35;;;0.50;;
79088;SDS011;68489;50.286;9.452;2023-12-22T11:56:03;4.95;;;0.55;;
79088;SDS011;68489;50.286;9.452;2023-12-22T11:58:43;4.15;;;0.45;;
79088;SDS011;68489;50.286;9.452;2023-12-22T12:01:18;6.28;;;1.00;;
79088;SDS011;68489;50.286;9.452;2023-12-22T12:08:41;7.47;;;0.68;;
79088;SDS011;68489;50.286;9.452;2023-12-22T12:11:09;5.22;;;0.43;;
79088;SDS011;68489;50.286;9.452;2023-12-22T12:13:35;6.15;;;0.50;;
79088;SDS011;68489;50.286;9.452;2023-12-22T12:16:09;8.20;;;1.00;;
79088;SDS011;68489;50.286;9.452;2023-12-22T12:18:36;14.45;;;0.90;;
79088;SDS011;68489;50.286;9.452;2023-12-22T12:21:01;7.65;;;0.88;;
79088;SDS011;68489;50.286;9.452;2023-12-22T12:23:27;9.73;;;0.88;;
79088;SDS011;68489;50.286;9.452;2023-12-22T12:25:55;7.07;;;0.60;;
79088;SDS011;68489;50.286;9.452;2023-12-22T12:28:31;7.65;;;1.02;;
79088;SDS011;68489;50.286;9.452;2023-12-22T12:30:58;10.30;;;0.90;;
79088;SDS011;68489;50.286;9.452;2023-12-22T12:33:25;7.88;;;0.73;;
79088;SDS011;68489;50.286;9.452;2023-12-22T12:35:52;7.28;;;0.50;;
79088;SDS011;68489;50.286;9.452;2023-12-22T12:38:20;4.40;;;0.47;;
79088;SDS011;68489;50.286;9.452;2023-12-22T12:40:48;4.78;;;0.50;;
79088;SDS011;68489;50.286;9.452;2023-12-22T12:43:15;6.38;;;1.40;;
79088;SDS011;68489;50.286;9.452;2023-12-22T12:45:42;12.32;;;1.15;;
79088;SDS011;68489;50.286;9.452;2023-12-22T12:48:07;13.93;;;1.05;;
79088;SDS011;68489;50.286;9.452;2023-12-22T12:50:33;3.75;;;0.47;;
79088;SDS011;68489;50.286;9.452;2023-12-22T12:52:58;3.60;;;0.47;;
79088;SDS011;68489;50.286;9.452;2023-12-22T12:55:24;7.00;;;0.80;;
79088;SDS011;68489;50.286;9.452;2023-12-22T12:57:51;7.97;;;0.30;;
79088;SDS011;68489;50.286;9.452;2023-12-22T13:00:23;5.85;;;0.40;;
79088;SDS011;68489;50.286;9.452;2023-12-22T13:02:49;12.95;;;1.77;;
79088;SDS011;68489;50.286;9.452;2023-12-22T13:05:21;11.27;;;2.53;;
79088;SDS011;68489;50.286;9.452;2023-12-22T13:07:47;7.60;;;0.88;;
79088;SDS011;68489;50.286;9.452;2023-12-22T13:10:19;4.63;;;0.40;;
79088;SDS011;68489;50.286;9.452;2023-12-22T13:12:54;6.75;;;0.63;;
79088;SDS011;68489;50.286;9.452;2023-12-22T13:15:20;5.32;;;0.30;;
79088;SDS011;68489;50.286;9.452;2023-12-22T13:17:48;4.70;;;0.20;;
79088;SDS011;68489;50.286;9.452;2023-12-22T13:20:14;5.38;;;0.32;;
79088;SDS011;68489;50.286;9.452;2023-12-22T13:22:40;5.18;;;0.20;;
79088;SDS011;68489;50.286;9.452;2023-12-22T13:25:05;4.93;;;0.13;;
79088;SDS011;68489;50.286;9.452;2023-12-22T13:27:31;3.63;;;0.10;;
79088;SDS011;68489;50.286;9.452;2023-12-22T13:29:56;1.02;;;0.10;;
79088;SDS011;68489;50.286;9.452;2023-12-22T13:32:22;3.15;;;0.30;;
79088;SDS011;68489;50.286;9.452;2023-12-22T13:34:55;3.03;;;0.20;;
79088;SDS011;68489;50.286;9.452;2023-12-22T13:37:21;3.75;;;0.10;;
79088;SDS011;68489;50.286;9.452;2023-12-22T13:39:49;1.85;;;0.10;;
79088;SDS011;68489;50.286;9.452;2023-12-22T13:42:18;2.78;;;0.10;;
79088;SDS011;68489;50.286;9.452;2023-12-22T13:44:46;1.33;;;0.00;;
79088;SDS011;68489;50.286;9.452;2023-12-22T13:47:17;1.35;;;0.05;;
79088;SDS011;68489;50.286;9.452;2023-12-22T13:49:45;1.25;;;0.00;;
79088;SDS011;68489;50.286;9.452;2023-12-22T13:52:29;3.15;;;0.10;;
79088;SDS011;68489;50.286;9.452;2023-12-22T13:54:57;0.35;;;0.00;;
79088;SDS011;68489;50.286;9.452;2023-12-22T13:57:25;0.65;;;0.10;;
79088;SDS011;68489;50.286;9.452;2023-12-22T13:59:51;2.05;;;0.10;;
79088;SDS011;68489;50.286;9.452;2023-12-22T14:02:18;1.77;;;0.20;;
79088;SDS011;68489;50.286;9.452;2023-12-22T14:04:45;1.55;;;0.20;;
79088;SDS011;68489;50.286;9.452;2023-12-22T14:07:10;5.47;;;1.38;;
79088;SDS011;68489;50.286;9.452;2023-12-22T14:09:35;10.00;;;1.80;;
79088;SDS011;68489;50.286;9.452;2023-12-22T14:12:03;6.90;;;0.20;;
79088;SDS011;68489;50.286;9.452;2023-12-22T14:14:30;1.40;;;0.10;;
79088;SDS011;68489;50.286;9.452;2023-12-22T14:16:56;1.23;;;0.10;;
79088;SDS011;68489;50.286;9.452;2023-12-22T14:19:21;3.37;;;0.13;;
79088;SDS011;68489;50.286;9.452;2023-12-22T14:21:46;1.97;;;0.10;;
79088;SDS011;68489;50.286;9.452;2023-12-22T14:24:12;3.33;;;0.20;;
79088;SDS011;68489;50.286;9.452;2023-12-22T14:26:56;2.17;;;0.20;;
79088;SDS011;68489;50.286;9.452;2023-12-22T14:29:21;1.40;;;0.10;;
79088;SDS011;68489;50.286;9.452;2023-12-22T14:31:50;2.08;;;0.22;;
79088;SDS011;68489;50.286;9.452;2023-12-22T14:34:16;2.35;;;0.20;;
79088;SDS011;68489;50.286;9.452;2023-12-22T14:36:42;3.15;;;0.15;;
79088;SDS011;68489;50.286;9.452;2023-12-22T14:39:09;2.88;;;0.28;;
79088;SDS011;68489;50.286;9.452;2023-12-22T14:41:36;2.53;;;0.20;;
79088;SDS011;68489;50.286;9.452;2023-12-22T14:44:01;1.90;;;0.20;;
79088;SDS011;68489;50.286;9.452;2023-12-22T14:46:27;2.10;;;0.10;;
79088;SDS011;68489;50.286;9.452;2023-12-22T14:48:53;1.58;;;0.10;;
79088;SDS011;68489;50.286;9.452;2023-12-22T14:51:19;0.98;;;0.03;;